createdAt,value
2022-11-23T00:00:47.038Z,0.80
2022-11-23T00:05:52.713Z,0.70
2022-11-23T00:10:58.298Z,0.80
2022-11-23T00:16:02.161Z,0.80
2022-11-23T00:21:11.312Z,0.80
2022-11-23T00:26:15.615Z,0.80
2022-11-23T00:31:20.517Z,0.70
2022-11-23T00:36:26.863Z,0.80
2022-11-23T00:41:30.030Z,0.80
2022-11-23T00:46:33.617Z,0.80
2022-11-23T00:51:38.193Z,0.70
2022-11-23T00:56:41.435Z,0.70
2022-11-23T01:01:45.174Z,0.90
2022-11-23T01:06:50.181Z,1.10
2022-11-23T01:11:54.011Z,1.20
2022-11-23T01:17:00.104Z,1.30
2022-11-23T01:22:04.771Z,1.40
2022-11-23T01:27:07.939Z,1.50
2022-11-23T01:32:11.174Z,1.40
2022-11-23T01:37:16.286Z,1.50
2022-11-23T01:42:21.114Z,1.60
2022-11-23T01:47:24.193Z,1.70
2022-11-23T01:52:28.804Z,1.80
2022-11-23T01:57:36.705Z,1.70
2022-11-23T02:02:46.268Z,1.70
2022-11-23T02:07:51.892Z,1.70
2022-11-23T02:12:55.306Z,1.90
2022-11-23T02:18:01.068Z,1.90
2022-11-23T02:23:18.357Z,2.00
2022-11-23T02:28:26.758Z,2.00
2022-11-23T02:33:30.193Z,1.90
2022-11-23T02:38:34.069Z,1.90
2022-11-23T02:43:39.629Z,1.90
2022-11-23T02:48:42.857Z,2.00
2022-11-23T02:53:46.349Z,2.10
2022-11-23T02:58:51.208Z,2.00
2022-11-23T03:03:55.026Z,1.90
2022-11-23T03:08:58.265Z,1.90
2022-11-23T03:14:04.358Z,1.80
2022-11-23T03:19:15.658Z,1.70
2022-11-23T03:24:19.267Z,1.60
2022-11-23T03:29:26.369Z,1.50
2022-11-23T03:34:31.106Z,1.40
2022-11-23T03:39:34.655Z,1.40
2022-11-23T03:44:39.400Z,1.40
2022-11-23T03:49:42.873Z,1.30
2022-11-23T03:54:47.140Z,1.20
2022-11-23T03:59:52.614Z,1.20
2022-11-23T04:04:56.207Z,1.30
2022-11-23T04:10:20.149Z,1.50
2022-11-23T04:15:43.558Z,1.40
2022-11-23T04:20:47.412Z,1.60
2022-11-23T04:25:50.694Z,1.60
2022-11-23T04:30:58.775Z,1.50
2022-11-23T04:36:03.650Z,1.70
2022-11-23T04:41:07.051Z,1.80
2022-11-23T04:46:12.435Z,1.70
2022-11-23T04:51:16.673Z,1.70
2022-11-23T04:56:20.217Z,1.60
2022-11-23T05:01:26.147Z,1.60
2022-11-23T05:06:48.021Z,1.50
2022-11-23T05:11:51.479Z,1.50
2022-11-23T05:16:56.112Z,1.60
2022-11-23T05:21:59.362Z,1.70
2022-11-23T05:27:03.896Z,1.60
2022-11-23T05:32:08.717Z,1.70
2022-11-23T05:37:11.958Z,1.80
2022-11-23T05:42:25.806Z,1.70
2022-11-23T05:47:33.932Z,1.70
2022-11-23T05:52:40.041Z,1.80
2022-11-23T05:57:43.644Z,1.60
2022-11-23T06:02:49.185Z,1.50
2022-11-23T06:07:53.914Z,1.30
2022-11-23T06:13:04.047Z,1.20
2022-11-23T06:18:10.154Z,1.20
2022-11-23T06:23:21.355Z,1.10
2022-11-23T06:28:24.784Z,1.20
2022-11-23T06:33:31.954Z,1.20
2022-11-23T06:38:35.983Z,1.10
2022-11-23T06:43:47.046Z,1.10
2022-11-23T06:48:58.456Z,1.00
2022-11-23T06:54:01.708Z,0.90
2022-11-23T06:59:05.226Z,0.80
2022-11-23T07:04:11.307Z,0.70
2022-11-23T07:09:22.620Z,0.60
2022-11-23T07:14:40.127Z,0.70
2022-11-23T07:19:46.443Z,0.70
2022-11-23T07:24:50.439Z,0.90
2022-11-23T07:29:53.882Z,1.10
2022-11-23T07:34:58.505Z,1.40
2022-11-23T07:40:03.368Z,1.30
2022-11-23T07:45:09.508Z,1.30
2022-11-23T07:50:16.345Z,1.30
2022-11-23T07:55:19.786Z,1.30
2022-11-23T08:00:26.908Z,1.50
2022-11-23T08:05:36.062Z,1.90
2022-11-23T08:10:45.263Z,2.00
2022-11-23T08:15:57.584Z,2.10
2022-11-23T08:21:06.571Z,2.10
2022-11-23T08:26:13.770Z,2.30
2022-11-23T08:31:17.983Z,2.50
2022-11-23T08:36:23.266Z,2.70
2022-11-23T08:41:27.420Z,3.20
2022-11-23T08:46:31.229Z,3.30
2022-11-23T08:51:35.896Z,3.30
2022-11-23T08:56:39.428Z,3.90
2022-11-23T09:01:42.821Z,5.00
2022-11-23T09:06:47.646Z,6.30
2022-11-23T09:11:51.407Z,6.40
2022-11-23T09:16:55.000Z,7.00
2022-11-23T09:22:00.074Z,7.60
2022-11-23T09:27:03.612Z,7.40
2022-11-23T09:32:06.939Z,6.80
2022-11-23T09:37:11.610Z,7.20
2022-11-23T09:42:38.608Z,7.30
2022-11-23T09:48:14.876Z,6.70
2022-11-23T09:53:24.809Z,6.00
2022-11-23T09:58:38.120Z,5.60
2022-11-23T10:03:48.736Z,5.30
2022-11-23T10:09:04.347Z,5.20
2022-11-23T10:14:20.603Z,5.30
2022-11-23T10:19:37.758Z,5.30
2022-11-23T10:24:47.956Z,5.50
2022-11-23T10:29:54.460Z,5.80
2022-11-23T10:35:03.278Z,6.00
2022-11-23T10:40:17.370Z,6.20
2022-11-23T10:45:23.374Z,6.50
2022-11-23T10:50:30.170Z,6.70
2022-11-23T10:55:48.203Z,6.70
2022-11-23T11:00:59.448Z,6.80
2022-11-23T11:06:11.585Z,6.80
2022-11-23T11:11:25.376Z,6.90
2022-11-23T11:16:31.951Z,7.10
2022-11-23T11:21:41.025Z,7.40
2022-11-23T11:26:50.887Z,7.00
2022-11-23T11:31:59.970Z,7.20
2022-11-23T11:37:11.543Z,7.30
2022-11-23T11:42:21.095Z,7.40
2022-11-23T11:47:30.896Z,7.40
2022-11-23T11:52:39.304Z,7.50
2022-11-23T11:57:48.829Z,7.50
2022-11-23T12:03:01.069Z,7.30
2022-11-23T12:08:11.176Z,7.40
2022-11-23T12:13:17.477Z,7.40
2022-11-23T12:18:41.053Z,7.30
2022-11-23T12:23:52.009Z,7.50
2022-11-23T12:29:14.341Z,7.70
2022-11-23T12:34:31.967Z,7.40
2022-11-23T12:39:57.770Z,7.60
2022-11-23T12:45:18.728Z,7.60
2022-11-23T12:50:30.760Z,7.60
2022-11-23T12:55:44.070Z,7.70
2022-11-23T13:00:54.151Z,7.70
2022-11-23T13:07:12.424Z,7.60
2022-11-23T13:12:24.930Z,7.60
2022-11-23T13:17:41.546Z,7.80
2022-11-23T13:22:46.183Z,7.60
2022-11-23T13:28:22.488Z,7.50
2022-11-23T13:33:37.465Z,7.50
2022-11-23T13:38:43.311Z,7.50
2022-11-23T13:43:49.560Z,7.50
2022-11-23T13:48:57.494Z,7.30
2022-11-23T13:54:03.417Z,7.20
2022-11-23T13:59:28.036Z,7.10
2022-11-23T14:04:33.889Z,7.00
2022-11-23T14:09:45.626Z,7.10
2022-11-23T14:14:57.306Z,6.90
2022-11-23T14:20:24.975Z,6.70
2022-11-23T14:25:40.400Z,6.50
2022-11-23T14:31:31.137Z,6.30
2022-11-23T14:36:48.487Z,6.20
2022-11-23T14:41:56.666Z,6.20
2022-11-23T14:47:02.014Z,6.00
2022-11-23T14:52:23.549Z,5.80
2022-11-23T14:57:40.788Z,5.60
2022-11-23T15:02:45.623Z,5.40
2022-11-23T15:07:55.411Z,5.30
2022-11-23T15:12:59.152Z,5.20
2022-11-23T15:18:06.407Z,5.00
2022-11-23T15:23:24.557Z,5.00
2022-11-23T15:28:33.254Z,4.70
2022-11-23T15:33:38.026Z,4.60
2022-11-23T15:38:43.114Z,4.70
2022-11-23T15:43:53.874Z,4.90
2022-11-23T15:48:57.713Z,5.00
2022-11-23T15:54:02.337Z,5.00
2022-11-23T15:59:28.443Z,5.20
2022-11-23T16:04:36.196Z,5.40
2022-11-23T16:09:52.129Z,5.30
2022-11-23T16:14:57.863Z,5.40
2022-11-23T16:20:05.082Z,5.40
2022-11-23T16:25:24.537Z,5.40
2022-11-23T16:30:36.076Z,5.20
2022-11-23T16:35:39.395Z,5.40
2022-11-23T16:40:45.305Z,5.40
2022-11-23T16:45:51.508Z,5.40
2022-11-23T16:50:56.291Z,5.30
2022-11-23T16:56:02.646Z,5.40
2022-11-23T17:01:06.439Z,5.30
2022-11-23T17:06:12.118Z,5.20
2022-11-23T17:11:18.851Z,5.00
2022-11-23T17:16:24.256Z,4.80
2022-11-23T17:21:27.525Z,4.70
2022-11-23T17:26:36.038Z,4.60
2022-11-23T17:31:39.667Z,4.10
2022-11-23T17:36:44.166Z,4.00
2022-11-23T17:41:49.612Z,4.20
2022-11-23T17:46:57.727Z,3.90
2022-11-23T17:52:01.322Z,3.90
2022-11-23T17:57:06.234Z,3.80
2022-11-23T18:02:10.127Z,3.60
2022-11-23T18:07:15.100Z,3.50
2022-11-23T18:12:21.571Z,3.30
2022-11-23T18:17:25.047Z,3.10
2022-11-23T18:22:28.945Z,3.00
2022-11-23T18:27:34.807Z,2.90
2022-11-23T18:32:37.953Z,2.80
2022-11-23T18:37:44.782Z,3.00
2022-11-23T18:42:49.912Z,2.90
2022-11-23T18:47:53.141Z,2.60
2022-11-23T18:52:57.063Z,2.40
2022-11-23T18:58:01.922Z,2.20
2022-11-23T19:03:06.034Z,1.90
2022-11-23T19:08:09.841Z,1.70
2022-11-23T19:13:15.820Z,1.50
2022-11-23T19:18:19.816Z,1.40
2022-11-23T19:23:28.360Z,1.40
2022-11-23T19:28:35.262Z,1.20
2022-11-23T19:33:39.623Z,1.00
2022-11-23T19:38:43.593Z,0.90
2022-11-23T19:43:52.745Z,0.80
2022-11-23T19:48:57.610Z,0.60
2022-11-23T19:54:02.197Z,0.40
2022-11-23T19:59:08.210Z,0.40
2022-11-23T20:04:11.479Z,0.40
2022-11-23T20:09:19.517Z,0.30
2022-11-23T20:14:24.100Z,0.30
2022-11-23T20:19:27.314Z,0.20
2022-11-23T20:24:30.752Z,0.10
2022-11-23T20:29:35.574Z,0.20
2022-11-23T20:34:39.106Z,0.10
2022-11-23T20:39:44.373Z,0.20
2022-11-23T20:44:48.928Z,0.20
2022-11-23T20:49:52.044Z,0.50
2022-11-23T20:54:55.141Z,0.50
2022-11-23T20:59:59.592Z,0.40
2022-11-23T21:05:02.829Z,0.70
2022-11-23T21:10:06.747Z,0.80
2022-11-23T21:15:12.495Z,0.90
2022-11-23T21:20:16.412Z,0.90
2022-11-23T21:25:20.313Z,0.80
2022-11-23T21:30:25.187Z,0.30
2022-11-23T21:35:31.840Z,0.20
2022-11-23T21:40:35.523Z,0.10
2022-11-23T21:45:40.278Z,0.00
2022-11-23T21:50:43.601Z,-0.20
2022-11-23T21:55:47.025Z,-0.40
2022-11-23T22:00:51.652Z,-0.50
2022-11-23T22:05:56.070Z,-0.30
2022-11-23T22:10:59.606Z,-0.30
2022-11-23T22:16:16.658Z,-0.40
2022-11-23T22:21:21.055Z,-0.50
2022-11-23T22:26:24.593Z,-0.60
2022-11-23T22:31:33.977Z,-0.40
2022-11-23T22:36:37.360Z,-0.50
2022-11-23T22:41:40.903Z,-0.10
2022-11-23T22:46:45.379Z,0.10
2022-11-23T22:51:48.900Z,0.20
2022-11-23T22:56:52.213Z,0.20
2022-11-23T23:01:56.810Z,0.40
2022-11-23T23:07:00.046Z,0.70
2022-11-23T23:12:03.346Z,0.80
2022-11-23T23:17:07.775Z,1.00
2022-11-23T23:22:10.893Z,1.10
2022-11-23T23:27:14.354Z,1.20
2022-11-23T23:32:19.595Z,1.50
2022-11-23T23:37:22.695Z,1.80
2022-11-23T23:42:25.749Z,1.90
2022-11-23T23:47:32.130Z,2.10
2022-11-23T23:52:37.099Z,2.20
2022-11-23T23:57:40.192Z,2.30
